sensor_id;sensor_type;location;lat;lon;timestamp;pressure;altitude;pressure_sealevel;temperature;humidity
36798;BME280;22748;8.426;99.512;2023-04-30T00:02:10;100480.78;;;30.21;62.77
36798;BME280;22748;8.426;99.512;2023-04-30T00:04:39;100489.47;;;30.23;62.22
36798;BME280;22748;8.426;99.512;2023-04-30T00:07:10;100488.41;;;30.24;62.90
36798;BME280;22748;8.426;99.512;2023-04-30T00:09:42;100486.78;;;30.23;62.91
36798;BME280;22748;8.426;99.512;2023-04-30T00:12:12;100494.84;;;30.23;62.61
36798;BME280;22748;8.426;99.512;2023-04-30T00:14:43;100500.25;;;30.23;63.20
36798;BME280;22748;8.426;99.512;2023-04-30T00:17:17;100501.41;;;30.27;63.11
36798;BME280;22748;8.426;99.512;2023-04-30T00:19:50;100501.25;;;30.28;63.05
36798;BME280;22748;8.426;99.512;2023-04-30T00:22:21;100507.88;;;30.26;63.59
36798;BME280;22748;8.426;99.512;2023-04-30T00:24:57;100509.97;;;30.24;63.27
36798;BME280;22748;8.426;99.512;2023-04-30T00:27:26;100517.81;;;30.25;63.35
36798;BME280;22748;8.426;99.512;2023-04-30T00:29:59;100522.97;;;30.27;63.73
36798;BME280;22748;8.426;99.512;2023-04-30T00:32:30;100527.19;;;30.23;63.36
36798;BME280;22748;8.426;99.512;2023-04-30T00:35:01;100533.00;;;30.20;63.91
36798;BME280;22748;8.426;99.512;2023-04-30T00:37:32;100538.38;;;30.20;63.71
36798;BME280;22748;8.426;99.512;2023-04-30T00:40:03;100545.44;;;30.21;64.18
36798;BME280;22748;8.426;99.512;2023-04-30T00:42:34;100539.84;;;30.15;63.83
36798;BME280;22748;8.426;99.512;2023-04-30T00:45:06;100543.22;;;30.11;64.08
36798;BME280;22748;8.426;99.512;2023-04-30T00:47:39;100543.81;;;30.13;64.32
36798;BME280;22748;8.426;99.512;2023-04-30T00:50:10;100554.53;;;30.20;64.60
36798;BME280;22748;8.426;99.512;2023-04-30T00:52:43;100550.81;;;30.21;64.77
36798;BME280;22748;8.426;99.512;2023-04-30T00:55:12;100546.63;;;30.25;64.04
36798;BME280;22748;8.426;99.512;2023-04-30T00:57:43;100549.91;;;30.27;64.13
36798;BME280;22748;8.426;99.512;2023-04-30T01:00:12;100552.22;;;30.30;63.91
36798;BME280;22748;8.426;99.512;2023-04-30T01:02:47;100560.69;;;30.33;64.49
36798;BME280;22748;8.426;99.512;2023-04-30T01:05:32;100565.00;;;30.34;64.73
36798;BME280;22748;8.426;99.512;2023-04-30T01:08:03;100556.13;;;30.34;63.87
36798;BME280;22748;8.426;99.512;2023-04-30T01:10:40;100554.25;;;30.34;64.51
36798;BME280;22748;8.426;99.512;2023-04-30T01:13:19;100560.84;;;30.39;64.39
36798;BME280;22748;8.426;99.512;2023-04-30T01:15:58;100566.00;;;30.40;64.39
36798;BME280;22748;8.426;99.512;2023-04-30T01:18:34;100560.63;;;30.40;64.79
36798;BME280;22748;8.426;99.512;2023-04-30T01:21:11;100559.34;;;30.43;64.84
36798;BME280;22748;8.426;99.512;2023-04-30T01:24:00;100555.25;;;30.40;64.86
36798;BME280;22748;8.426;99.512;2023-04-30T01:26:51;100554.38;;;30.40;64.94
36798;BME280;22748;8.426;99.512;2023-04-30T01:29:24;100562.25;;;30.41;64.62
36798;BME280;22748;8.426;99.512;2023-04-30T01:31:56;100568.88;;;30.45;64.53
36798;BME280;22748;8.426;99.512;2023-04-30T01:34:27;100573.78;;;30.48;64.64
36798;BME280;22748;8.426;99.512;2023-04-30T01:37:09;100565.88;;;30.53;64.98
36798;BME280;22748;8.426;99.512;2023-04-30T01:39:56;100568.34;;;30.55;65.14
36798;BME280;22748;8.426;99.512;2023-04-30T01:42:32;100567.25;;;30.63;64.74
36798;BME280;22748;8.426;99.512;2023-04-30T01:45:23;100569.88;;;30.69;64.55
36798;BME280;22748;8.426;99.512;2023-04-30T01:48:07;100566.66;;;30.79;64.20
36798;BME280;22748;8.426;99.512;2023-04-30T01:50:49;100575.09;;;30.89;64.36
36798;BME280;22748;8.426;99.512;2023-04-30T01:53:25;100580.47;;;30.89;64.19
36798;BME280;22748;8.426;99.512;2023-04-30T01:56:03;100573.00;;;30.91;64.08
36798;BME280;22748;8.426;99.512;2023-04-30T01:58:35;100571.13;;;30.92;63.75
36798;BME280;22748;8.426;99.512;2023-04-30T02:01:26;100573.81;;;30.92;63.87
36798;BME280;22748;8.426;99.512;2023-04-30T02:03:57;100570.44;;;30.96;64.31
36798;BME280;22748;8.426;99.512;2023-04-30T02:06:28;100564.00;;;30.98;64.10
36798;BME280;22748;8.426;99.512;2023-04-30T02:08:59;100569.63;;;30.96;64.33
36798;BME280;22748;8.426;99.512;2023-04-30T02:11:33;100561.69;;;31.01;64.23
36798;BME280;22748;8.426;99.512;2023-04-30T02:14:02;100574.72;;;31.04;64.47
36798;BME280;22748;8.426;99.512;2023-04-30T02:16:38;100578.63;;;31.08;64.00
36798;BME280;22748;8.426;99.512;2023-04-30T02:19:10;100580.63;;;31.13;63.76
36798;BME280;22748;8.426;99.512;2023-04-30T02:21:38;100582.28;;;31.14;64.09
36798;BME280;22748;8.426;99.512;2023-04-30T02:24:09;100576.44;;;31.17;63.77
36798;BME280;22748;8.426;99.512;2023-04-30T02:26:40;100573.28;;;31.20;63.29
36798;BME280;22748;8.426;99.512;2023-04-30T02:29:14;100573.66;;;31.24;63.43
36798;BME280;22748;8.426;99.512;2023-04-30T02:31:48;100574.47;;;31.24;63.51
36798;BME280;22748;8.426;99.512;2023-04-30T02:34:18;100561.00;;;31.24;63.43
36798;BME280;22748;8.426;99.512;2023-04-30T02:36:50;100566.28;;;31.31;63.05
36798;BME280;22748;8.426;99.512;2023-04-30T02:39:21;100568.91;;;31.37;63.06
36798;BME280;22748;8.426;99.512;2023-04-30T02:41:52;100576.56;;;31.41;62.96
36798;BME280;22748;8.426;99.512;2023-04-30T02:44:22;100569.91;;;31.43;62.15
36798;BME280;22748;8.426;99.512;2023-04-30T02:46:58;100574.31;;;31.37;61.82
36798;BME280;22748;8.426;99.512;2023-04-30T02:49:30;100573.50;;;31.37;62.31
36798;BME280;22748;8.426;99.512;2023-04-30T02:52:01;100562.00;;;31.42;62.09
36798;BME280;22748;8.426;99.512;2023-04-30T02:54:31;100566.53;;;31.48;61.72
36798;BME280;22748;8.426;99.512;2023-04-30T02:57:02;100569.81;;;31.50;62.07
36798;BME280;22748;8.426;99.512;2023-04-30T02:59:33;100576.41;;;31.54;61.30
36798;BME280;22748;8.426;99.512;2023-04-30T03:02:08;100573.72;;;31.54;60.53
36798;BME280;22748;8.426;99.512;2023-04-30T03:04:38;100576.53;;;31.59;60.99
36798;BME280;22748;8.426;99.512;2023-04-30T03:07:09;100566.72;;;31.65;60.65
36798;BME280;22748;8.426;99.512;2023-04-30T03:09:38;100570.97;;;31.72;61.07
36798;BME280;22748;8.426;99.512;2023-04-30T03:12:09;100574.16;;;31.81;60.70
36798;BME280;22748;8.426;99.512;2023-04-30T03:14:42;100574.31;;;31.86;60.29
36798;BME280;22748;8.426;99.512;2023-04-30T03:17:17;100579.59;;;31.93;60.22
36798;BME280;22748;8.426;99.512;2023-04-30T03:19:48;100570.63;;;31.99;59.97
36798;BME280;22748;8.426;99.512;2023-04-30T03:22:17;100585.28;;;32.03;59.28
36798;BME280;22748;8.426;99.512;2023-04-30T03:24:50;100585.28;;;32.03;59.83
36798;BME280;22748;8.426;99.512;2023-04-30T03:27:22;100581.75;;;32.03;58.69
36798;BME280;22748;8.426;99.512;2023-04-30T03:29:57;100581.16;;;32.01;58.72
36798;BME280;22748;8.426;99.512;2023-04-30T03:32:37;100572.84;;;32.02;58.63
36798;BME280;22748;8.426;99.512;2023-04-30T03:35:07;100565.69;;;32.08;58.44
36798;BME280;22748;8.426;99.512;2023-04-30T03:37:38;100556.31;;;32.10;58.09
36798;BME280;22748;8.426;99.512;2023-04-30T03:40:10;100548.53;;;32.14;58.28
36798;BME280;22748;8.426;99.512;2023-04-30T03:42:46;100555.22;;;32.11;58.38
36798;BME280;22748;8.426;99.512;2023-04-30T03:45:17;100552.53;;;32.11;57.93
36798;BME280;22748;8.426;99.512;2023-04-30T03:47:51;100554.78;;;32.14;56.74
36798;BME280;22748;8.426;99.512;2023-04-30T03:50:22;100554.66;;;32.21;56.59
36798;BME280;22748;8.426;99.512;2023-04-30T03:52:52;100557.13;;;32.23;56.12
36798;BME280;22748;8.426;99.512;2023-04-30T03:55:24;100555.84;;;32.25;56.10
36798;BME280;22748;8.426;99.512;2023-04-30T03:57:59;100557.25;;;32.28;56.14
36798;BME280;22748;8.426;99.512;2023-04-30T04:00:31;100549.38;;;32.38;55.77
36798;BME280;22748;8.426;99.512;2023-04-30T04:03:04;100548.44;;;32.44;55.20
36798;BME280;22748;8.426;99.512;2023-04-30T04:05:35;100548.56;;;32.49;54.85
36798;BME280;22748;8.426;99.512;2023-04-30T04:08:05;100539.53;;;32.55;54.66
36798;BME280;22748;8.426;99.512;2023-04-30T04:10:37;100541.06;;;32.63;54.32
36798;BME280;22748;8.426;99.512;2023-04-30T04:13:09;100532.09;;;32.74;53.95
36798;BME280;22748;8.426;99.512;2023-04-30T04:15:43;100546.22;;;32.88;53.91
36798;BME280;22748;8.426;99.512;2023-04-30T04:18:15;100544.56;;;32.87;54.49
36798;BME280;22748;8.426;99.512;2023-04-30T04:20:46;100539.72;;;32.89;53.80
36798;BME280;22748;8.426;99.512;2023-04-30T04:23:18;100535.94;;;32.90;53.83
36798;BME280;22748;8.426;99.512;2023-04-30T04:25:54;100539.25;;;32.92;54.08
36798;BME280;22748;8.426;99.512;2023-04-30T04:28:25;100527.59;;;32.92;54.33
36798;BME280;22748;8.426;99.512;2023-04-30T04:30:56;100529.00;;;32.94;53.86
36798;BME280;22748;8.426;99.512;2023-04-30T04:33:29;100521.25;;;32.98;54.18
36798;BME280;22748;8.426;99.512;2023-04-30T04:36:00;100516.75;;;33.04;53.66
36798;BME280;22748;8.426;99.512;2023-04-30T04:38:31;100521.81;;;33.12;53.30
36798;BME280;22748;8.426;99.512;2023-04-30T04:41:05;100517.31;;;33.17;53.11
36798;BME280;22748;8.426;99.512;2023-04-30T04:43:37;100507.09;;;33.19;52.89
36798;BME280;22748;8.426;99.512;2023-04-30T04:46:08;100503.16;;;33.27;52.86
36798;BME280;22748;8.426;99.512;2023-04-30T04:48:40;100497.94;;;33.37;52.99
36798;BME280;22748;8.426;99.512;2023-04-30T04:51:11;100501.56;;;33.43;52.62
36798;BME280;22748;8.426;99.512;2023-04-30T04:53:42;100493.53;;;33.48;52.32
36798;BME280;22748;8.426;99.512;2023-04-30T04:56:14;100483.50;;;33.49;52.01
36798;BME280;22748;8.426;99.512;2023-04-30T04:58:45;100481.88;;;33.48;51.94
36798;BME280;22748;8.426;99.512;2023-04-30T05:01:16;100474.34;;;33.50;52.14
36798;BME280;22748;8.426;99.512;2023-04-30T05:03:48;100468.44;;;33.53;51.98
36798;BME280;22748;8.426;99.512;2023-04-30T05:06:27;100464.78;;;33.59;52.70
36798;BME280;22748;8.426;99.512;2023-04-30T05:08:59;100453.22;;;33.64;52.42
36798;BME280;22748;8.426;99.512;2023-04-30T05:11:32;100448.13;;;33.67;51.59
36798;BME280;22748;8.426;99.512;2023-04-30T05:14:02;100446.81;;;33.70;52.21
36798;BME280;22748;8.426;99.512;2023-04-30T05:16:33;100435.31;;;33.79;52.07
36798;BME280;22748;8.426;99.512;2023-04-30T05:19:05;100432.19;;;33.88;51.72
36798;BME280;22748;8.426;99.512;2023-04-30T05:21:45;100430.88;;;33.90;51.74
36798;BME280;22748;8.426;99.512;2023-04-30T05:24:21;100427.34;;;33.90;51.35
36798;BME280;22748;8.426;99.512;2023-04-30T05:26:56;100416.28;;;33.91;50.91
36798;BME280;22748;8.426;99.512;2023-04-30T05:29:27;100411.66;;;33.92;51.30
36798;BME280;22748;8.426;99.512;2023-04-30T05:31:57;100411.41;;;33.93;51.38
36798;BME280;22748;8.426;99.512;2023-04-30T05:34:31;100396.56;;;33.96;51.53
36798;BME280;22748;8.426;99.512;2023-04-30T05:37:03;100380.94;;;34.03;51.24
36798;BME280;22748;8.426;99.512;2023-04-30T05:39:34;100371.56;;;34.11;51.32
36798;BME280;22748;8.426;99.512;2023-04-30T05:42:04;100373.53;;;34.15;51.52
36798;BME280;22748;8.426;99.512;2023-04-30T05:44:34;100375.75;;;34.18;51.40
36798;BME280;22748;8.426;99.512;2023-04-30T05:47:08;100373.59;;;34.20;51.31
36798;BME280;22748;8.426;99.512;2023-04-30T05:49:45;100361.69;;;34.21;50.60
36798;BME280;22748;8.426;99.512;2023-04-30T05:52:16;100351.47;;;34.29;50.30
36798;BME280;22748;8.426;99.512;2023-04-30T05:54:46;100336.22;;;34.22;50.24
36798;BME280;22748;8.426;99.512;2023-04-30T05:57:17;100336.84;;;34.30;50.13
36798;BME280;22748;8.426;99.512;2023-04-30T05:59:48;100327.09;;;34.29;50.16
36798;BME280;22748;8.426;99.512;2023-04-30T06:02:18;100316.28;;;34.34;50.27
36798;BME280;22748;8.426;99.512;2023-04-30T06:04:50;100312.06;;;34.43;50.38
36798;BME280;22748;8.426;99.512;2023-04-30T06:07:21;100300.16;;;34.44;50.30
36798;BME280;22748;8.426;99.512;2023-04-30T06:09:52;100294.72;;;34.44;49.93
36798;BME280;22748;8.426;99.512;2023-04-30T06:12:23;100285.00;;;34.48;50.04
36798;BME280;22748;8.426;99.512;2023-04-30T06:14:54;100282.84;;;34.50;49.78
36798;BME280;22748;8.426;99.512;2023-04-30T06:17:23;100282.63;;;34.52;50.11
36798;BME280;22748;8.426;99.512;2023-04-30T06:19:58;100272.59;;;34.52;49.93
36798;BME280;22748;8.426;99.512;2023-04-30T06:22:34;100268.50;;;34.50;50.29
36798;BME280;22748;8.426;99.512;2023-04-30T06:25:05;100254.63;;;34.46;50.24
36798;BME280;22748;8.426;99.512;2023-04-30T06:27:36;100249.22;;;34.51;49.73
36798;BME280;22748;8.426;99.512;2023-04-30T06:30:08;100243.56;;;34.53;48.80
36798;BME280;22748;8.426;99.512;2023-04-30T06:32:38;100232.47;;;34.54;49.11
36798;BME280;22748;8.426;99.512;2023-04-30T06:35:12;100237.94;;;34.59;48.76
36798;BME280;22748;8.426;99.512;2023-04-30T06:37:42;100234.47;;;34.64;48.61
36798;BME280;22748;8.426;99.512;2023-04-30T06:40:13;100228.78;;;34.66;49.10
36798;BME280;22748;8.426;99.512;2023-04-30T06:42:44;100223.63;;;34.64;49.06
36798;BME280;22748;8.426;99.512;2023-04-30T06:45:14;100220.91;;;34.64;49.13
36798;BME280;22748;8.426;99.512;2023-04-30T06:47:45;100206.00;;;34.67;49.08
36798;BME280;22748;8.426;99.512;2023-04-30T06:50:17;100194.66;;;34.70;49.38
36798;BME280;22748;8.426;99.512;2023-04-30T06:52:48;100184.94;;;34.74;49.36
36798;BME280;22748;8.426;99.512;2023-04-30T06:55:18;100184.63;;;34.70;49.34
36798;BME280;22748;8.426;99.512;2023-04-30T06:57:49;100184.84;;;34.64;50.07
36798;BME280;22748;8.426;99.512;2023-04-30T07:00:20;100181.09;;;34.70;50.54
36798;BME280;22748;8.426;99.512;2023-04-30T07:02:51;100186.56;;;34.75;50.96
36798;BME280;22748;8.426;99.512;2023-04-30T07:05:32;100193.19;;;34.62;51.31
36798;BME280;22748;8.426;99.512;2023-04-30T07:08:03;100193.25;;;34.35;51.93
36798;BME280;22748;8.426;99.512;2023-04-30T07:10:34;100189.97;;;34.33;51.96
36798;BME280;22748;8.426;99.512;2023-04-30T07:13:06;100180.47;;;34.30;51.87
36798;BME280;22748;8.426;99.512;2023-04-30T07:15:36;100176.38;;;34.28;52.10
36798;BME280;22748;8.426;99.512;2023-04-30T07:18:07;100164.41;;;34.24;52.08
36798;BME280;22748;8.426;99.512;2023-04-30T07:20:42;100140.88;;;34.29;51.92
36798;BME280;22748;8.426;99.512;2023-04-30T07:23:12;100137.38;;;34.34;51.52
36798;BME280;22748;8.426;99.512;2023-04-30T07:25:42;100115.34;;;34.25;51.12
36798;BME280;22748;8.426;99.512;2023-04-30T07:28:14;100129.19;;;34.24;50.82
36798;BME280;22748;8.426;99.512;2023-04-30T07:30:45;100148.66;;;34.20;50.84
36798;BME280;22748;8.426;99.512;2023-04-30T07:33:14;100156.84;;;34.26;51.26
36798;BME280;22748;8.426;99.512;2023-04-30T07:35:48;100162.56;;;34.29;51.04
36798;BME280;22748;8.426;99.512;2023-04-30T07:38:19;100163.91;;;34.32;51.24
36798;BME280;22748;8.426;99.512;2023-04-30T07:40:51;100174.84;;;34.37;51.25
36798;BME280;22748;8.426;99.512;2023-04-30T07:43:25;100223.63;;;34.37;51.37
36798;BME280;22748;8.426;99.512;2023-04-30T07:45:54;100224.59;;;34.26;51.91
36798;BME280;22748;8.426;99.512;2023-04-30T07:48:25;100227.31;;;34.26;53.06
36798;BME280;22748;8.426;99.512;2023-04-30T07:50:56;100233.22;;;34.22;52.75
36798;BME280;22748;8.426;99.512;2023-04-30T07:53:26;100230.53;;;34.22;52.65
36798;BME280;22748;8.426;99.512;2023-04-30T07:55:59;100224.03;;;34.24;52.88
36798;BME280;22748;8.426;99.512;2023-04-30T07:58:31;100205.31;;;34.22;53.28
36798;BME280;22748;8.426;99.512;2023-04-30T08:01:01;100184.66;;;34.16;53.65
36798;BME280;22748;8.426;99.512;2023-04-30T08:03:32;100177.78;;;34.08;53.97
36798;BME280;22748;8.426;99.512;2023-04-30T08:06:05;100176.38;;;34.06;53.99
36798;BME280;22748;8.426;99.512;2023-04-30T08:08:35;100185.84;;;34.03;53.60
36798;BME280;22748;8.426;99.512;2023-04-30T08:11:06;100192.59;;;34.00;53.05
36798;BME280;22748;8.426;99.512;2023-04-30T08:13:37;100183.56;;;33.95;53.01
36798;BME280;22748;8.426;99.512;2023-04-30T08:16:08;100176.53;;;33.94;53.00
36798;BME280;22748;8.426;99.512;2023-04-30T08:18:40;100174.91;;;33.93;52.89
36798;BME280;22748;8.426;99.512;2023-04-30T08:21:16;100175.94;;;33.87;52.86
36798;BME280;22748;8.426;99.512;2023-04-30T08:23:48;100174.28;;;33.86;52.94
36798;BME280;22748;8.426;99.512;2023-04-30T08:26:18;100180.78;;;33.85;52.69
36798;BME280;22748;8.426;99.512;2023-04-30T08:28:49;100186.13;;;33.79;52.00
36798;BME280;22748;8.426;99.512;2023-04-30T08:31:20;100193.63;;;33.72;51.94
36798;BME280;22748;8.426;99.512;2023-04-30T08:33:51;100182.22;;;33.70;52.33
36798;BME280;22748;8.426;99.512;2023-04-30T08:36:24;100194.63;;;33.66;52.15
36798;BME280;22748;8.426;99.512;2023-04-30T08:38:54;100194.00;;;33.59;52.52
36798;BME280;22748;8.426;99.512;2023-04-30T08:41:26;100183.66;;;33.56;52.56
36798;BME280;22748;8.426;99.512;2023-04-30T08:44:01;100190.38;;;33.53;52.78
36798;BME280;22748;8.426;99.512;2023-04-30T08:46:36;100197.13;;;33.51;53.23
36798;BME280;22748;8.426;99.512;2023-04-30T08:49:08;100196.31;;;33.50;53.29
36798;BME280;22748;8.426;99.512;2023-04-30T08:51:41;100201.97;;;33.49;53.49
36798;BME280;22748;8.426;99.512;2023-04-30T08:54:13;100213.88;;;33.48;53.38
36798;BME280;22748;8.426;99.512;2023-04-30T08:56:44;100211.34;;;33.41;53.77
36798;BME280;22748;8.426;99.512;2023-04-30T08:59:13;100206.41;;;33.38;53.93
36798;BME280;22748;8.426;99.512;2023-04-30T09:01:44;100198.06;;;33.39;54.08
36798;BME280;22748;8.426;99.512;2023-04-30T09:04:14;100195.84;;;33.36;54.03
36798;BME280;22748;8.426;99.512;2023-04-30T09:06:48;100197.91;;;33.29;54.22
36798;BME280;22748;8.426;99.512;2023-04-30T09:09:29;100187.03;;;33.24;54.36
36798;BME280;22748;8.426;99.512;2023-04-30T09:12:23;100183.16;;;33.20;54.22
36798;BME280;22748;8.426;99.512;2023-04-30T09:15:09;100179.84;;;33.13;54.32
36798;BME280;22748;8.426;99.512;2023-04-30T09:17:42;100173.59;;;33.12;54.48
36798;BME280;22748;8.426;99.512;2023-04-30T09:20:19;100172.28;;;33.15;54.52
36798;BME280;22748;8.426;99.512;2023-04-30T09:23:10;100178.44;;;33.10;54.34
36798;BME280;22748;8.426;99.512;2023-04-30T09:25:40;100177.59;;;33.10;54.38
36798;BME280;22748;8.426;99.512;2023-04-30T09:28:10;100177.31;;;33.06;54.28
36798;BME280;22748;8.426;99.512;2023-04-30T09:30:42;100188.34;;;33.05;54.11
36798;BME280;22748;8.426;99.512;2023-04-30T09:33:13;100177.75;;;33.03;54.31
36798;BME280;22748;8.426;99.512;2023-04-30T09:35:43;100189.06;;;33.00;54.51
36798;BME280;22748;8.426;99.512;2023-04-30T09:38:32;100182.84;;;32.99;54.68
36798;BME280;22748;8.426;99.512;2023-04-30T09:41:06;100186.72;;;33.04;54.85
36798;BME280;22748;8.426;99.512;2023-04-30T09:43:51;100184.00;;;33.04;54.91
36798;BME280;22748;8.426;99.512;2023-04-30T09:46:30;100182.72;;;33.06;54.70
36798;BME280;22748;8.426;99.512;2023-04-30T09:49:01;100184.34;;;33.07;54.74
36798;BME280;22748;8.426;99.512;2023-04-30T09:51:31;100178.13;;;33.07;54.70
36798;BME280;22748;8.426;99.512;2023-04-30T09:54:06;100176.47;;;33.06;54.62
36798;BME280;22748;8.426;99.512;2023-04-30T09:56:37;100167.78;;;33.04;54.57
36798;BME280;22748;8.426;99.512;2023-04-30T09:59:09;100161.53;;;33.03;54.66
36798;BME280;22748;8.426;99.512;2023-04-30T10:01:41;100162.38;;;33.04;54.94
36798;BME280;22748;8.426;99.512;2023-04-30T10:04:13;100160.72;;;33.03;55.18
36798;BME280;22748;8.426;99.512;2023-04-30T10:06:44;100165.53;;;33.00;55.40
36798;BME280;22748;8.426;99.512;2023-04-30T10:09:18;100162.78;;;32.95;55.34
36798;BME280;22748;8.426;99.512;2023-04-30T10:11:51;100163.25;;;32.92;55.67
36798;BME280;22748;8.426;99.512;2023-04-30T10:14:24;100174.81;;;32.88;55.51
36798;BME280;22748;8.426;99.512;2023-04-30T10:17:01;100176.72;;;32.87;55.65
36798;BME280;22748;8.426;99.512;2023-04-30T10:19:34;100180.25;;;32.71;56.00
36798;BME280;22748;8.426;99.512;2023-04-30T10:22:06;100190.22;;;32.70;56.38
36798;BME280;22748;8.426;99.512;2023-04-30T10:24:41;100192.13;;;32.70;56.27
36798;BME280;22748;8.426;99.512;2023-04-30T10:27:14;100201.63;;;32.72;56.69
36798;BME280;22748;8.426;99.512;2023-04-30T10:29:44;100208.91;;;32.72;56.58
36798;BME280;22748;8.426;99.512;2023-04-30T10:32:15;100223.53;;;32.71;56.96
36798;BME280;22748;8.426;99.512;2023-04-30T10:34:50;100229.00;;;32.76;56.88
36798;BME280;22748;8.426;99.512;2023-04-30T10:37:28;100254.22;;;32.82;56.70
36798;BME280;22748;8.426;99.512;2023-04-30T10:40:03;100250.25;;;32.84;56.59
36798;BME280;22748;8.426;99.512;2023-04-30T10:42:36;100250.25;;;32.84;56.68
36798;BME280;22748;8.426;99.512;2023-04-30T10:45:09;100254.00;;;32.83;56.77
36798;BME280;22748;8.426;99.512;2023-04-30T10:47:42;100264.81;;;32.83;56.82
36798;BME280;22748;8.426;99.512;2023-04-30T10:50:14;100263.50;;;32.86;56.71
36798;BME280;22748;8.426;99.512;2023-04-30T10:52:46;100270.44;;;32.82;56.47
36798;BME280;22748;8.426;99.512;2023-04-30T10:55:24;100263.34;;;32.75;56.44
36798;BME280;22748;8.426;99.512;2023-04-30T10:57:58;100261.44;;;32.76;56.88
36798;BME280;22748;8.426;99.512;2023-04-30T11:00:29;100258.41;;;32.72;56.76
36798;BME280;22748;8.426;99.512;2023-04-30T11:03:03;100252.50;;;32.58;57.00
36798;BME280;22748;8.426;99.512;2023-04-30T11:05:37;100242.66;;;32.52;57.37
36798;BME280;22748;8.426;99.512;2023-04-30T11:08:11;100244.63;;;32.57;57.20
36798;BME280;22748;8.426;99.512;2023-04-30T11:10:57;100248.63;;;32.54;57.30
36798;BME280;22748;8.426;99.512;2023-04-30T11:13:34;100260.25;;;32.55;57.39
36798;BME280;22748;8.426;99.512;2023-04-30T11:16:10;100265.66;;;32.55;57.16
36798;BME280;22748;8.426;99.512;2023-04-30T11:18:44;100264.84;;;32.54;57.38
36798;BME280;22748;8.426;99.512;2023-04-30T11:21:20;100266.25;;;32.57;57.33
36798;BME280;22748;8.426;99.512;2023-04-30T11:23:51;100266.81;;;32.59;57.60
36798;BME280;22748;8.426;99.512;2023-04-30T11:26:22;100278.72;;;32.58;57.46
36798;BME280;22748;8.426;99.512;2023-04-30T11:28:55;100283.63;;;32.61;57.81
36798;BME280;22748;8.426;99.512;2023-04-30T11:31:33;100294.22;;;32.63;57.58
36798;BME280;22748;8.426;99.512;2023-04-30T11:34:03;100303.63;;;32.60;57.51
36798;BME280;22748;8.426;99.512;2023-04-30T11:36:34;100301.41;;;32.57;57.80
36798;BME280;22748;8.426;99.512;2023-04-30T11:39:05;100311.38;;;32.56;57.88
36798;BME280;22748;8.426;99.512;2023-04-30T11:41:43;100325.41;;;32.53;57.50
36798;BME280;22748;8.426;99.512;2023-04-30T11:44:24;100333.94;;;32.50;57.69
36798;BME280;22748;8.426;99.512;2023-04-30T11:46:55;100336.66;;;32.50;57.86
36798;BME280;22748;8.426;99.512;2023-04-30T11:49:26;100347.47;;;32.50;57.83
36798;BME280;22748;8.426;99.512;2023-04-30T11:51:58;100350.06;;;32.45;57.82
36798;BME280;22748;8.426;99.512;2023-04-30T11:54:32;100343.38;;;32.48;58.31
36798;BME280;22748;8.426;99.512;2023-04-30T11:57:04;100358.28;;;32.50;58.32
36798;BME280;22748;8.426;99.512;2023-04-30T11:59:40;100371.22;;;32.48;58.23
36798;BME280;22748;8.426;99.512;2023-04-30T12:02:14;100377.09;;;32.45;58.10
36798;BME280;22748;8.426;99.512;2023-04-30T12:04:46;100385.44;;;32.44;58.57
36798;BME280;22748;8.426;99.512;2023-04-30T12:07:16;100393.78;;;32.42;58.47
36798;BME280;22748;8.426;99.512;2023-04-30T12:10:04;100402.16;;;32.41;58.73
36798;BME280;22748;8.426;99.512;2023-04-30T12:12:37;100401.78;;;32.37;58.64
36798;BME280;22748;8.426;99.512;2023-04-30T12:15:24;100414.13;;;32.33;58.88
36798;BME280;22748;8.426;99.512;2023-04-30T12:17:56;100421.66;;;32.31;59.33
36798;BME280;22748;8.426;99.512;2023-04-30T12:20:31;100434.94;;;32.32;59.12
36798;BME280;22748;8.426;99.512;2023-04-30T12:23:01;100443.06;;;32.32;59.19
36798;BME280;22748;8.426;99.512;2023-04-30T12:25:38;100450.94;;;32.34;59.18
36798;BME280;22748;8.426;99.512;2023-04-30T12:28:11;100453.03;;;32.32;59.12
36798;BME280;22748;8.426;99.512;2023-04-30T12:30:42;100461.47;;;32.35;59.23
36798;BME280;22748;8.426;99.512;2023-04-30T12:33:15;100465.47;;;32.33;59.38
36798;BME280;22748;8.426;99.512;2023-04-30T12:35:47;100466.56;;;32.32;59.61
36798;BME280;22748;8.426;99.512;2023-04-30T12:38:18;100473.13;;;32.36;59.28
36798;BME280;22748;8.426;99.512;2023-04-30T12:40:49;100479.09;;;32.38;59.29
36798;BME280;22748;8.426;99.512;2023-04-30T12:43:22;100479.09;;;32.38;59.48
36798;BME280;22748;8.426;99.512;2023-04-30T12:45:53;100482.97;;;32.42;59.65
36798;BME280;22748;8.426;99.512;2023-04-30T12:48:25;100484.41;;;32.45;59.32
36798;BME280;22748;8.426;99.512;2023-04-30T12:50:57;100488.75;;;32.46;59.43
36798;BME280;22748;8.426;99.512;2023-04-30T12:53:30;100491.22;;;32.47;59.32
36798;BME280;22748;8.426;99.512;2023-04-30T12:56:15;100486.84;;;32.46;59.41
36798;BME280;22748;8.426;99.512;2023-04-30T12:58:48;100488.50;;;32.47;59.59
36798;BME280;22748;8.426;99.512;2023-04-30T13:01:20;100495.56;;;32.48;59.27
36798;BME280;22748;8.426;99.512;2023-04-30T13:03:51;100497.22;;;32.49;59.39
36798;BME280;22748;8.426;99.512;2023-04-30T13:06:22;100498.84;;;32.50;59.42
36798;BME280;22748;8.426;99.512;2023-04-30T13:08:53;100515.06;;;32.50;59.65
36798;BME280;22748;8.426;99.512;2023-04-30T13:11:23;100518.84;;;32.49;59.49
36798;BME280;22748;8.426;99.512;2023-04-30T13:13:57;100519.66;;;32.50;59.33
36798;BME280;22748;8.426;99.512;2023-04-30T13:16:28;100522.13;;;32.51;59.38
36798;BME280;22748;8.426;99.512;2023-04-30T13:19:00;100518.84;;;32.49;59.34
36798;BME280;22748;8.426;99.512;2023-04-30T13:21:32;100510.13;;;32.47;59.32